createdAt,value
2023-04-16T00:01:16.436Z,5.60
2023-04-16T00:03:42.925Z,4.40
2023-04-16T00:06:12.402Z,5.72
2023-04-16T00:08:38.884Z,5.80
2023-04-16T00:11:05.788Z,8.40
2023-04-16T00:13:32.378Z,5.63
2023-04-16T00:15:59.096Z,5.32
2023-04-16T00:18:25.655Z,4.60
2023-04-16T00:20:52.129Z,5.82
2023-04-16T00:23:18.558Z,5.68
2023-04-16T00:25:45.195Z,5.80
2023-04-16T00:28:11.608Z,5.43
2023-04-16T00:30:38.189Z,7.15
2023-04-16T00:33:04.810Z,5.28
2023-04-16T00:35:31.265Z,5.57
2023-04-16T00:37:57.666Z,6.40
2023-04-16T00:40:28.569Z,6.00
2023-04-16T00:42:55.045Z,6.35
2023-04-16T00:45:21.450Z,7.00
2023-04-16T00:47:47.905Z,7.22
2023-04-16T00:50:14.427Z,6.18
2023-04-16T00:52:40.857Z,6.47
2023-04-16T00:55:08.061Z,6.82
2023-04-16T00:57:34.507Z,6.57
2023-04-16T01:00:01.018Z,6.32
2023-04-16T01:02:27.701Z,6.55
2023-04-16T01:04:55.187Z,6.00
2023-04-16T01:07:21.770Z,7.82
2023-04-16T01:09:48.154Z,7.07
2023-04-16T01:12:14.650Z,7.68
2023-04-16T01:14:41.051Z,7.65
2023-04-16T01:17:07.457Z,6.82
2023-04-16T01:19:36.325Z,4.65
2023-04-16T01:22:03.600Z,7.40
2023-04-16T01:24:30.267Z,6.88
2023-04-16T01:26:59.737Z,7.30
2023-04-16T01:29:26.714Z,11.32
2023-04-16T01:31:54.291Z,24.75
2023-04-16T01:34:20.873Z,12.15
2023-04-16T01:36:47.288Z,7.40
2023-04-16T01:39:15.656Z,23.17
2023-04-16T01:41:42.668Z,20.05
2023-04-16T01:44:09.240Z,8.20
2023-04-16T01:46:36.163Z,7.13
2023-04-16T01:49:02.903Z,6.85
2023-04-16T01:51:29.359Z,7.47
2023-04-16T01:53:56.033Z,6.22
2023-04-16T01:56:22.421Z,5.70
2023-04-16T01:58:48.943Z,7.80
2023-04-16T02:01:16.159Z,6.88
2023-04-16T02:03:43.003Z,6.07
2023-04-16T02:06:09.568Z,6.00
2023-04-16T02:08:36.152Z,6.72
2023-04-16T02:11:02.663Z,7.05
2023-04-16T02:13:29.058Z,7.32
2023-04-16T02:15:55.649Z,6.35
2023-04-16T02:18:22.072Z,7.07
2023-04-16T02:20:49.806Z,6.63
2023-04-16T02:23:16.298Z,6.97
2023-04-16T02:25:44.837Z,6.70
2023-04-16T02:28:13.413Z,6.93
2023-04-16T02:30:41.105Z,6.78
2023-04-16T02:33:10.523Z,6.25
2023-04-16T02:35:39.196Z,8.07
2023-04-16T02:38:05.798Z,8.10
2023-04-16T02:40:32.548Z,6.55
2023-04-16T02:42:59.215Z,6.25
2023-04-16T02:45:25.820Z,9.25
2023-04-16T02:47:52.470Z,6.93
2023-04-16T02:50:19.244Z,7.50
2023-04-16T02:52:45.767Z,7.80
2023-04-16T02:55:12.186Z,6.57
2023-04-16T02:57:38.719Z,6.75
2023-04-16T03:00:05.784Z,6.35
2023-04-16T03:02:32.319Z,8.45
2023-04-16T03:04:58.822Z,9.15
2023-04-16T03:07:25.850Z,8.82
2023-04-16T03:09:52.349Z,8.98
2023-04-16T03:12:18.877Z,8.35
2023-04-16T03:14:45.317Z,8.90
2023-04-16T03:17:12.102Z,8.60
2023-04-16T03:19:38.533Z,8.40
2023-04-16T03:22:05.061Z,10.10
2023-04-16T03:24:32.218Z,8.90
2023-04-16T03:26:58.994Z,10.68
2023-04-16T03:29:26.714Z,10.48
2023-04-16T03:31:53.413Z,10.85
2023-04-16T03:34:19.967Z,10.68
2023-04-16T03:36:46.448Z,10.68
2023-04-16T03:39:12.986Z,10.68
2023-04-16T03:41:39.418Z,9.68
2023-04-16T03:44:05.878Z,10.13
2023-04-16T03:46:32.354Z,9.98
2023-04-16T03:48:58.813Z,10.02
2023-04-16T03:51:26.253Z,8.45
2023-04-16T03:53:52.812Z,7.43
2023-04-16T03:56:19.196Z,12.93
2023-04-16T03:58:45.588Z,9.32
2023-04-16T04:01:12.018Z,10.35
2023-04-16T04:03:38.593Z,10.43
2023-04-16T04:06:09.195Z,8.27
2023-04-16T04:08:35.731Z,10.85
2023-04-16T04:11:02.144Z,8.93
2023-04-16T04:13:28.758Z,11.25
2023-04-16T04:15:55.279Z,10.38
2023-04-16T04:18:21.810Z,9.25
2023-04-16T04:20:48.335Z,11.00
2023-04-16T04:23:14.791Z,10.23
2023-04-16T04:25:41.207Z,14.07
2023-04-16T04:28:07.586Z,13.27
2023-04-16T04:30:35.686Z,12.70
2023-04-16T04:33:02.182Z,12.98
2023-04-16T04:35:28.694Z,11.98
2023-04-16T04:37:55.205Z,8.77
2023-04-16T04:40:21.593Z,10.40
2023-04-16T04:42:48.188Z,12.65
2023-04-16T04:45:14.723Z,10.73
2023-04-16T04:47:41.212Z,12.35
2023-04-16T04:50:08.244Z,11.25
2023-04-16T04:52:34.796Z,11.23
2023-04-16T04:55:01.303Z,12.15
2023-04-16T04:57:27.790Z,8.30
2023-04-16T04:59:54.222Z,10.40
2023-04-16T05:02:20.781Z,11.48
2023-04-16T05:04:47.330Z,10.50
2023-04-16T05:07:13.824Z,10.23
2023-04-16T05:09:40.548Z,12.60
2023-04-16T05:12:07.150Z,8.93
2023-04-16T05:14:33.632Z,12.35
2023-04-16T05:17:02.903Z,13.20
2023-04-16T05:19:29.444Z,11.18
2023-04-16T05:21:56.185Z,9.98
2023-04-16T05:24:22.794Z,8.77
2023-04-16T05:26:49.206Z,9.98
2023-04-16T05:29:15.925Z,11.48
2023-04-16T05:31:42.572Z,10.90
2023-04-16T05:34:08.961Z,10.85
2023-04-16T05:36:35.403Z,12.02
2023-04-16T05:39:01.913Z,13.10
2023-04-16T05:41:28.314Z,9.18
2023-04-16T05:43:54.703Z,11.73
2023-04-16T05:46:21.202Z,12.98
2023-04-16T05:48:47.654Z,9.00
2023-04-16T05:51:14.072Z,10.93
2023-04-16T05:53:40.955Z,11.10
2023-04-16T05:56:07.966Z,11.77
2023-04-16T05:58:34.457Z,10.43
2023-04-16T06:01:01.439Z,11.90
2023-04-16T06:03:28.065Z,10.27
2023-04-16T06:05:54.675Z,10.68
2023-04-16T06:08:21.254Z,8.93
2023-04-16T06:10:47.890Z,11.73
2023-04-16T06:13:14.543Z,12.30
2023-04-16T06:15:41.025Z,9.20
2023-04-16T06:18:07.489Z,10.73
2023-04-16T06:20:33.970Z,9.07
2023-04-16T06:23:00.615Z,9.88
2023-04-16T06:25:27.028Z,10.93
2023-04-16T06:27:53.417Z,11.20
2023-04-16T06:30:20.080Z,10.32
2023-04-16T06:32:46.630Z,10.32
2023-04-16T06:35:13.199Z,14.20
2023-04-16T06:37:39.601Z,10.25
2023-04-16T06:40:06.542Z,8.27
2023-04-16T06:42:32.968Z,12.27
2023-04-16T06:44:59.377Z,11.77
2023-04-16T06:47:25.871Z,11.95
2023-04-16T06:49:52.347Z,12.30
2023-04-16T06:52:18.928Z,11.13
2023-04-16T06:54:45.373Z,12.82
2023-04-16T06:57:11.846Z,13.25
2023-04-16T06:59:38.530Z,9.82
2023-04-16T07:02:05.052Z,14.23
2023-04-16T07:04:31.602Z,11.85
2023-04-16T07:06:58.047Z,12.45
2023-04-16T07:09:25.228Z,13.43
2023-04-16T07:11:51.631Z,10.88
2023-04-16T07:14:18.174Z,14.00
2023-04-16T07:16:44.626Z,13.52
2023-04-16T07:19:11.300Z,13.32
2023-04-16T07:21:38.039Z,11.63
2023-04-16T07:24:04.526Z,11.68
2023-04-16T07:26:31.046Z,11.05
2023-04-16T07:29:11.290Z,12.18
2023-04-16T07:31:38.582Z,12.57
2023-04-16T07:34:05.117Z,10.45
2023-04-16T07:36:31.822Z,11.43
2023-04-16T07:38:58.263Z,11.63
2023-04-16T07:41:25.094Z,12.38
2023-04-16T07:43:51.568Z,12.07
2023-04-16T07:46:18.081Z,11.30
2023-04-16T07:48:44.544Z,11.70
2023-04-16T07:51:11.027Z,10.10
2023-04-16T07:53:37.483Z,9.23
2023-04-16T07:56:03.948Z,13.57
2023-04-16T07:58:30.399Z,14.43
2023-04-16T08:00:56.870Z,12.50
2023-04-16T08:03:23.553Z,13.82
2023-04-16T08:05:50.245Z,13.00
2023-04-16T08:08:16.706Z,15.23
2023-04-16T08:10:43.129Z,13.90
2023-04-16T08:13:09.587Z,19.33
2023-04-16T08:15:36.171Z,16.00
2023-04-16T08:18:02.757Z,15.27
2023-04-16T08:20:29.223Z,15.90
2023-04-16T08:22:55.760Z,12.85
2023-04-16T08:25:24.589Z,14.15
2023-04-16T08:27:51.061Z,13.55
2023-04-16T08:30:18.727Z,16.15
2023-04-16T08:32:46.880Z,15.05
2023-04-16T08:35:15.372Z,14.15
2023-04-16T08:37:41.922Z,16.63
2023-04-16T08:40:08.969Z,15.88
2023-04-16T08:42:48.635Z,17.83
2023-04-16T08:45:17.838Z,14.55
2023-04-16T08:47:51.807Z,18.35
2023-04-16T08:50:24.056Z,14.20
2023-04-16T08:52:52.470Z,17.73
2023-04-16T08:55:25.693Z,18.80
2023-04-16T08:57:57.521Z,18.67
2023-04-16T09:00:24.283Z,15.77
2023-04-16T09:02:51.567Z,17.50
2023-04-16T09:05:20.625Z,18.42
2023-04-16T09:07:49.123Z,16.50
2023-04-16T09:10:16.489Z,18.83
2023-04-16T09:12:46.266Z,14.70
2023-04-16T09:15:14.094Z,19.55
2023-04-16T09:17:40.855Z,18.92
2023-04-16T09:20:08.958Z,19.90
2023-04-16T09:22:36.251Z,16.65
2023-04-16T09:25:02.839Z,16.15
2023-04-16T09:27:30.825Z,15.93
2023-04-16T09:29:57.325Z,15.40
2023-04-16T09:32:28.029Z,15.02
2023-04-16T09:37:34.151Z,18.58
2023-04-16T09:40:02.190Z,14.38
2023-04-16T09:42:31.740Z,15.35
2023-04-16T09:45:01.397Z,16.67
2023-04-16T09:47:41.411Z,14.68
2023-04-16T09:50:11.924Z,15.00
2023-04-16T09:52:39.200Z,14.20
2023-04-16T09:55:06.418Z,15.23
2023-04-16T09:57:32.927Z,16.25
2023-04-16T10:00:05.672Z,17.13
2023-04-16T10:02:33.147Z,16.95
2023-04-16T10:05:02.023Z,14.13
2023-04-16T10:07:29.724Z,15.68
2023-04-16T10:09:56.977Z,15.43
2023-04-16T10:12:23.419Z,15.15
2023-04-16T10:14:50.371Z,14.52
2023-04-16T10:17:17.589Z,15.70
2023-04-16T10:19:44.425Z,15.70
2023-04-16T10:22:11.419Z,14.88
2023-04-16T10:24:38.729Z,17.33
2023-04-16T10:27:05.325Z,16.38
2023-04-16T10:29:32.875Z,15.27
2023-04-16T10:32:01.113Z,15.57
2023-04-16T10:34:29.042Z,16.10
2023-04-16T10:36:56.037Z,14.10
2023-04-16T10:39:24.595Z,18.77
2023-04-16T10:42:06.197Z,17.60
2023-04-16T10:44:33.327Z,15.48
2023-04-16T10:46:59.820Z,15.95
2023-04-16T10:49:27.138Z,15.40
2023-04-16T10:51:59.582Z,16.35
2023-04-16T10:54:29.789Z,15.02
2023-04-16T10:57:01.266Z,16.35
2023-04-16T10:59:34.965Z,15.10
2023-04-16T11:02:24.157Z,14.88
2023-04-16T11:04:52.330Z,16.10
2023-04-16T11:07:33.306Z,17.20
2023-04-16T11:10:06.817Z,13.73
2023-04-16T11:12:34.336Z,18.63
2023-04-16T11:15:06.308Z,16.60
2023-04-16T11:17:38.010Z,15.82
2023-04-16T11:20:19.928Z,16.42
2023-04-16T11:22:48.510Z,16.65
2023-04-16T11:25:21.113Z,14.75
2023-04-16T11:27:47.556Z,18.15
2023-04-16T11:30:14.179Z,14.98
2023-04-16T11:32:40.710Z,17.05
2023-04-16T11:35:18.592Z,14.75
2023-04-16T11:37:48.260Z,12.57
2023-04-16T11:40:15.046Z,14.88
2023-04-16T11:42:42.575Z,12.65
2023-04-16T11:45:11.329Z,14.85
2023-04-16T11:47:52.158Z,14.00
2023-04-16T11:50:24.507Z,15.32
2023-04-16T11:52:53.146Z,13.65
2023-04-16T11:55:20.596Z,15.45
2023-04-16T11:57:47.363Z,17.08
2023-04-16T12:00:15.046Z,16.88
2023-04-16T12:02:46.065Z,16.90
2023-04-16T12:05:35.582Z,15.48
2023-04-16T12:08:04.031Z,14.57
2023-04-16T12:10:34.819Z,11.18
2023-04-16T12:13:12.691Z,12.13
2023-04-16T12:15:50.000Z,10.43
2023-04-16T12:18:17.987Z,13.68
2023-04-16T12:20:45.032Z,15.15
2023-04-16T12:23:26.172Z,12.57
2023-04-16T12:25:53.785Z,11.75
2023-04-16T12:28:34.209Z,11.75
2023-04-16T12:31:01.555Z,15.38
2023-04-16T12:33:28.397Z,11.60
2023-04-16T12:35:55.042Z,12.32
2023-04-16T12:38:24.051Z,17.35
2023-04-16T12:40:51.697Z,14.23
2023-04-16T12:43:18.294Z,14.30
2023-04-16T12:45:44.809Z,12.77
2023-04-16T12:48:11.514Z,15.02
2023-04-16T12:50:39.588Z,13.40
2023-04-16T12:53:06.229Z,12.75
2023-04-16T12:55:32.659Z,12.40
2023-04-16T12:57:59.084Z,16.75
2023-04-16T13:00:25.599Z,15.82
2023-04-16T13:02:52.218Z,14.05
2023-04-16T13:05:19.286Z,15.88
2023-04-16T13:07:46.168Z,13.38
2023-04-16T13:10:13.059Z,17.70
2023-04-16T13:12:39.656Z,14.75
2023-04-16T13:15:06.671Z,14.60
2023-04-16T13:17:33.108Z,14.75
2023-04-16T13:19:59.615Z,13.60
2023-04-16T13:22:26.103Z,14.15
2023-04-16T13:24:52.848Z,14.05
2023-04-16T13:27:19.294Z,14.68
2023-04-16T13:29:46.171Z,12.68
2023-04-16T13:32:13.944Z,10.50
2023-04-16T13:34:40.634Z,9.52
2023-04-16T13:37:07.169Z,9.73
2023-04-16T13:39:33.795Z,9.38
2023-04-16T13:42:00.322Z,10.50
2023-04-16T13:44:26.762Z,11.05
2023-04-16T13:46:53.272Z,9.85
2023-04-16T13:49:19.790Z,11.15
2023-04-16T13:51:46.185Z,9.77
2023-04-16T13:54:12.984Z,23.98
2023-04-16T13:56:40.775Z,12.60
2023-04-16T13:59:07.996Z,12.63
2023-04-16T14:01:34.665Z,15.13
2023-04-16T14:04:05.981Z,11.48
2023-04-16T14:06:33.822Z,14.10
2023-04-16T14:09:00.349Z,12.68
2023-04-16T14:11:26.834Z,12.15
2023-04-16T14:13:53.306Z,12.45
2023-04-16T14:16:19.741Z,12.73
2023-04-16T14:18:46.162Z,10.30
2023-04-16T14:21:13.272Z,9.85
2023-04-16T14:23:39.710Z,11.90
2023-04-16T14:26:06.196Z,10.50
2023-04-16T14:28:32.822Z,9.38
2023-04-16T14:30:59.196Z,9.55
2023-04-16T14:33:25.666Z,9.98
2023-04-16T14:35:52.360Z,8.93
2023-04-16T14:38:18.896Z,8.88
2023-04-16T14:40:45.507Z,11.15
2023-04-16T14:43:11.903Z,10.00
2023-04-16T14:45:38.394Z,10.25
2023-04-16T14:48:06.324Z,10.15
2023-04-16T14:50:37.765Z,10.80
2023-04-16T14:53:05.114Z,9.05
2023-04-16T14:55:31.926Z,10.48
2023-04-16T14:57:59.617Z,9.98
2023-04-16T15:00:27.321Z,9.13
2023-04-16T15:02:55.019Z,10.60
2023-04-16T15:05:22.093Z,10.93
2023-04-16T15:07:48.663Z,12.82
2023-04-16T15:10:15.498Z,13.32
2023-04-16T15:12:41.911Z,9.88
2023-04-16T15:15:08.982Z,10.82
2023-04-16T15:17:35.692Z,9.32
2023-04-16T15:20:02.601Z,9.77
2023-04-16T15:22:29.136Z,10.90
2023-04-16T15:24:55.562Z,11.15
2023-04-16T15:27:22.032Z,12.05
2023-04-16T15:29:53.222Z,12.43
2023-04-16T15:32:19.814Z,11.02
2023-04-16T15:34:46.592Z,9.57
2023-04-16T15:37:13.158Z,12.45
2023-04-16T15:39:39.543Z,10.57
2023-04-16T15:42:07.453Z,11.68
2023-04-16T15:44:34.742Z,14.48
2023-04-16T15:47:01.259Z,12.07
2023-04-16T15:49:27.727Z,11.50
2023-04-16T15:51:54.502Z,13.70
2023-04-16T15:54:21.424Z,13.52
2023-04-16T15:56:48.029Z,13.63
2023-04-16T15:59:14.584Z,11.00
2023-04-16T16:01:41.101Z,13.90
2023-04-16T16:04:07.973Z,12.63
2023-04-16T16:06:34.892Z,12.98
2023-04-16T16:09:01.757Z,13.05
2023-04-16T16:11:28.349Z,14.32
2023-04-16T16:13:54.928Z,11.60
2023-04-16T16:16:21.872Z,13.00
2023-04-16T16:18:48.669Z,12.07
2023-04-16T16:21:15.292Z,13.55
2023-04-16T16:23:41.967Z,14.70
2023-04-16T16:26:09.169Z,15.25
2023-04-16T16:28:37.767Z,17.98
2023-04-16T16:31:06.025Z,18.30
2023-04-16T16:33:32.964Z,17.80
2023-04-16T16:35:59.379Z,17.13
2023-04-16T16:38:25.960Z,18.05
2023-04-16T16:40:52.496Z,15.20
2023-04-16T16:43:19.055Z,19.00
2023-04-16T16:45:46.458Z,16.23
2023-04-16T16:48:12.930Z,15.60
2023-04-16T16:50:39.388Z,19.55
2023-04-16T16:53:05.918Z,18.70
2023-04-16T16:55:32.340Z,15.73
2023-04-16T16:57:58.826Z,15.32
2023-04-16T17:00:25.471Z,19.20
2023-04-16T17:02:52.279Z,14.70
2023-04-16T17:05:18.949Z,15.60
2023-04-16T17:07:45.809Z,19.70
2023-04-16T17:10:20.251Z,15.43
2023-04-16T17:12:50.485Z,14.52
2023-04-16T17:15:19.691Z,18.58
2023-04-16T17:17:47.846Z,17.13
2023-04-16T17:20:14.258Z,13.73
2023-04-16T17:22:40.785Z,18.42
2023-04-16T17:25:08.174Z,19.92
2023-04-16T17:27:34.778Z,16.40
2023-04-16T17:30:02.097Z,13.20
2023-04-16T17:32:29.748Z,15.07
2023-04-16T17:34:56.530Z,12.15
2023-04-16T17:37:23.259Z,12.77
2023-04-16T17:39:49.811Z,12.68
2023-04-16T17:42:16.426Z,13.05
2023-04-16T17:44:42.927Z,13.90
2023-04-16T17:47:09.352Z,12.77
2023-04-16T17:49:35.924Z,13.27
2023-04-16T17:52:02.335Z,14.57
2023-04-16T17:54:28.764Z,12.18
2023-04-16T17:56:55.218Z,13.70
2023-04-16T17:59:21.771Z,13.98
2023-04-16T18:01:49.539Z,13.48
2023-04-16T18:04:16.571Z,12.57
2023-04-16T18:06:43.311Z,15.15
2023-04-16T18:09:09.750Z,13.32
2023-04-16T18:11:36.223Z,12.30
2023-04-16T18:14:02.649Z,15.70
2023-04-16T18:16:29.128Z,11.88
2023-04-16T18:18:55.543Z,17.45
2023-04-16T18:21:22.113Z,12.95
2023-04-16T18:23:48.539Z,13.25
2023-04-16T18:26:18.657Z,14.02
2023-04-16T18:28:47.496Z,15.57
2023-04-16T18:31:13.978Z,12.18
2023-04-16T18:33:55.396Z,13.75
2023-04-16T18:36:23.560Z,13.32
2023-04-16T18:38:59.980Z,12.85
2023-04-16T18:41:27.962Z,12.70
2023-04-16T18:43:54.521Z,14.25
2023-04-16T18:46:20.986Z,10.05
2023-04-16T18:48:47.426Z,11.50
2023-04-16T18:51:16.154Z,13.15
2023-04-16T18:53:44.316Z,15.30
2023-04-16T18:56:11.093Z,17.33
2023-04-16T18:58:37.896Z,16.08
2023-04-16T19:01:04.819Z,14.55
2023-04-16T19:03:32.105Z,19.25
2023-04-16T19:05:58.796Z,16.65
2023-04-16T19:08:25.310Z,16.30
2023-04-16T19:10:51.847Z,18.80
2023-04-16T19:13:18.502Z,15.70
2023-04-16T19:15:45.423Z,14.30
2023-04-16T19:18:11.891Z,18.65
2023-04-16T19:20:39.068Z,18.35
2023-04-16T19:23:06.047Z,13.90
2023-04-16T19:25:32.715Z,16.88
2023-04-16T19:27:59.238Z,17.33
2023-04-16T19:30:26.436Z,14.57
2023-04-16T19:32:55.149Z,16.85
2023-04-16T19:35:22.503Z,13.48
2023-04-16T19:37:49.018Z,13.25
2023-04-16T19:40:15.449Z,11.85
2023-04-16T19:42:41.914Z,12.05
2023-04-16T19:45:08.640Z,16.13
2023-04-16T19:47:35.561Z,12.90
2023-04-16T19:50:02.124Z,14.77
2023-04-16T19:52:28.669Z,12.35
2023-04-16T19:54:55.123Z,14.20
2023-04-16T19:57:21.577Z,15.40
2023-04-16T19:59:48.040Z,13.60
2023-04-16T20:02:14.553Z,18.35
2023-04-16T20:04:40.959Z,17.02
2023-04-16T20:07:07.342Z,15.27
2023-04-16T20:09:33.736Z,23.08
2023-04-16T20:12:00.735Z,18.05
2023-04-16T20:14:27.245Z,14.32
2023-04-16T20:16:54.216Z,14.10
2023-04-16T20:19:22.041Z,15.82
2023-04-16T20:21:48.548Z,15.77
2023-04-16T20:24:15.345Z,13.68
2023-04-16T20:26:41.923Z,17.05
2023-04-16T20:29:09.998Z,16.58
2023-04-16T20:31:36.770Z,17.23
2023-04-16T20:34:03.772Z,14.60
2023-04-16T20:36:30.385Z,13.02
2023-04-16T20:38:56.905Z,15.13
2023-04-16T20:41:25.072Z,15.63
2023-04-16T20:43:52.777Z,15.73
2023-04-16T20:46:24.283Z,15.57
2023-04-16T20:48:51.407Z,18.30
2023-04-16T20:51:17.880Z,14.68
2023-04-16T20:53:44.398Z,17.88
2023-04-16T20:56:14.620Z,17.40
2023-04-16T20:58:41.676Z,14.20
2023-04-16T21:01:08.185Z,15.15
2023-04-16T21:03:34.859Z,14.85
2023-04-16T21:06:01.818Z,14.80
2023-04-16T21:08:28.287Z,18.67
2023-04-16T21:10:54.780Z,15.70
2023-04-16T21:13:21.756Z,18.73
2023-04-16T21:15:48.291Z,18.48
2023-04-16T21:18:14.910Z,16.02
2023-04-16T21:20:41.352Z,13.32
2023-04-16T21:23:10.261Z,13.73
2023-04-16T21:25:36.856Z,18.02
2023-04-16T21:28:03.286Z,17.95
2023-04-16T21:30:29.690Z,19.00
2023-04-16T21:32:56.135Z,16.50
2023-04-16T21:35:22.725Z,20.17
2023-04-16T21:37:49.110Z,17.60
2023-04-16T21:40:15.819Z,17.45
2023-04-16T21:42:42.397Z,15.02
2023-04-16T21:45:10.119Z,14.98
2023-04-16T21:47:37.261Z,14.60
2023-04-16T21:50:04.136Z,19.25
2023-04-16T21:52:32.730Z,16.70
2023-04-16T21:55:00.127Z,12.98
2023-04-16T21:57:26.590Z,16.63
2023-04-16T21:59:53.023Z,20.58
2023-04-16T22:02:19.549Z,16.30
2023-04-16T22:04:46.124Z,19.52
2023-04-16T22:07:12.610Z,15.45
2023-04-16T22:09:39.125Z,16.80
2023-04-16T22:12:12.002Z,20.02
2023-04-16T22:14:44.003Z,17.30
2023-04-16T22:17:17.104Z,18.98
2023-04-16T22:19:44.559Z,18.65
2023-04-16T22:22:10.988Z,16.27
2023-04-16T22:24:37.430Z,19.40
2023-04-16T22:27:04.183Z,18.15
2023-04-16T22:29:30.650Z,22.08
2023-04-16T22:31:57.322Z,20.90
2023-04-16T22:34:23.742Z,18.70
2023-04-16T22:36:50.242Z,18.20
2023-04-16T22:39:16.665Z,17.08
2023-04-16T22:41:43.051Z,18.40
2023-04-16T22:44:09.987Z,18.67
2023-04-16T22:46:36.986Z,19.73
2023-04-16T22:49:03.403Z,18.88
2023-04-16T22:51:30.544Z,22.70
2023-04-16T22:53:56.949Z,19.30
2023-04-16T22:56:28.496Z,23.05
2023-04-16T22:58:54.929Z,18.25
2023-04-16T23:01:21.574Z,17.73
2023-04-16T23:03:48.186Z,19.88
2023-04-16T23:06:14.670Z,18.45
2023-04-16T23:08:41.099Z,22.27
2023-04-16T23:11:07.607Z,19.17
2023-04-16T23:13:34.065Z,22.02
2023-04-16T23:16:00.589Z,19.08
2023-04-16T23:18:27.082Z,23.80
2023-04-16T23:20:53.643Z,17.30
2023-04-16T23:23:20.168Z,22.95
2023-04-16T23:25:46.653Z,19.02
2023-04-16T23:28:13.118Z,17.80
2023-04-16T23:30:39.575Z,21.13
2023-04-16T23:33:06.070Z,17.90
2023-04-16T23:35:32.520Z,19.08
2023-04-16T23:37:58.977Z,26.27
2023-04-16T23:40:25.656Z,20.30
2023-04-16T23:42:52.115Z,18.40
2023-04-16T23:45:18.572Z,19.23
2023-04-16T23:47:45.162Z,15.15
2023-04-16T23:50:11.770Z,18.35
2023-04-16T23:52:38.178Z,16.45
2023-04-16T23:55:05.156Z,15.95
2023-04-16T23:57:31.568Z,14.75
2023-04-16T23:59:57.945Z,15.35
